sensor_id;sensor_type;location;lat;lon;timestamp;pressure;altitude;pressure_sealevel;temperature;humidity
42519;BME280;28147;47.520;18.920;2022-09-28T00:02:13;97137.59;;;11.86;77.01
42519;BME280;28147;47.520;18.920;2022-09-28T00:04:38;97132.81;;;11.63;77.12
42519;BME280;28147;47.520;18.920;2022-09-28T00:07:04;97136.00;;;11.75;78.04
42519;BME280;28147;47.520;18.920;2022-09-28T00:09:29;97131.72;;;11.84;76.07
42519;BME280;28147;47.520;18.920;2022-09-28T00:11:55;97136.25;;;11.74;77.79
42519;BME280;28147;47.520;18.920;2022-09-28T00:14:22;97132.16;;;12.07;75.45
42519;BME280;28147;47.520;18.920;2022-09-28T00:16:48;97125.47;;;12.04;77.55
42519;BME280;28147;47.520;18.920;2022-09-28T00:19:13;97120.97;;;12.00;77.77
42519;BME280;28147;47.520;18.920;2022-09-28T00:21:40;97114.66;;;11.70;76.73
42519;BME280;28147;47.520;18.920;2022-09-28T00:24:11;97133.31;;;11.90;76.35
42519;BME280;28147;47.520;18.920;2022-09-28T00:29:27;97138.91;;;11.84;80.60
42519;BME280;28147;47.520;18.920;2022-09-28T00:31:56;97135.72;;;11.77;80.64
42519;BME280;28147;47.520;18.920;2022-09-28T00:34:29;97136.81;;;11.65;80.10
42519;BME280;28147;47.520;18.920;2022-09-28T00:36:58;97134.75;;;11.42;82.66
42519;BME280;28147;47.520;18.920;2022-09-28T00:39:24;97127.84;;;11.26;82.29
42519;BME280;28147;47.520;18.920;2022-09-28T00:41:50;97136.06;;;11.39;82.45
42519;BME280;28147;47.520;18.920;2022-09-28T00:46:49;97136.28;;;11.58;80.37
42519;BME280;28147;47.520;18.920;2022-09-28T00:49:23;97128.84;;;11.55;78.87
42519;BME280;28147;47.520;18.920;2022-09-28T00:51:51;97129.91;;;11.59;79.75
42519;BME280;28147;47.520;18.920;2022-09-28T00:54:16;97123.22;;;11.62;80.07
42519;BME280;28147;47.520;18.920;2022-09-28T00:56:45;97120.59;;;11.57;79.35
42519;BME280;28147;47.520;18.920;2022-09-28T00:59:12;97125.06;;;11.66;78.91
42519;BME280;28147;47.520;18.920;2022-09-28T01:01:38;97124.84;;;11.53;78.24
42519;BME280;28147;47.520;18.920;2022-09-28T01:04:04;97126.44;;;11.54;79.92
42519;BME280;28147;47.520;18.920;2022-09-28T01:06:34;97129.72;;;11.20;81.52
42519;BME280;28147;47.520;18.920;2022-09-28T01:09:05;97132.38;;;11.30;80.52
42519;BME280;28147;47.520;18.920;2022-09-28T01:11:33;97136.09;;;11.34;79.44
42519;BME280;28147;47.520;18.920;2022-09-28T01:13:59;97132.81;;;11.63;78.30
42519;BME280;28147;47.520;18.920;2022-09-28T01:16:41;97127.00;;;11.56;78.46
42519;BME280;28147;47.520;18.920;2022-09-28T01:30:10;97153.63;;;11.61;77.31
42519;BME280;28147;47.520;18.920;2022-09-28T01:32:55;97145.53;;;11.81;77.08
42519;BME280;28147;47.520;18.920;2022-09-28T01:35:34;97141.34;;;11.65;77.45
42519;BME280;28147;47.520;18.920;2022-09-28T01:38:04;97143.19;;;11.75;77.43
42519;BME280;28147;47.520;18.920;2022-09-28T01:40:33;97147.97;;;11.78;77.44
42519;BME280;28147;47.520;18.920;2022-09-28T01:43:12;97151.44;;;11.83;77.53
42519;BME280;28147;47.520;18.920;2022-09-28T01:45:43;97147.41;;;11.81;76.03
42519;BME280;28147;47.520;18.920;2022-09-28T01:48:11;97150.91;;;11.76;76.21
42519;BME280;28147;47.520;18.920;2022-09-28T01:50:41;97162.59;;;11.96;76.04
42519;BME280;28147;47.520;18.920;2022-09-28T01:53:33;97165.34;;;11.60;76.84
42519;BME280;28147;47.520;18.920;2022-09-28T01:56:07;97158.44;;;11.49;77.67
42519;BME280;28147;47.520;18.920;2022-09-28T01:58:48;97159.78;;;11.46;77.84
42519;BME280;28147;47.520;18.920;2022-09-28T02:01:39;97158.97;;;11.56;77.59
42519;BME280;28147;47.520;18.920;2022-09-28T02:04:17;97154.97;;;11.53;77.67
42519;BME280;28147;47.520;18.920;2022-09-28T02:06:53;97139.78;;;11.54;79.10
42519;BME280;28147;47.520;18.920;2022-09-28T02:09:28;97149.34;;;11.55;76.60
42519;BME280;28147;47.520;18.920;2022-09-28T02:11:59;97155.47;;;11.65;76.47
42519;BME280;28147;47.520;18.920;2022-09-28T02:14:28;97156.84;;;11.53;76.44
42519;BME280;28147;47.520;18.920;2022-09-28T02:16:55;97141.06;;;11.66;76.02
42519;BME280;28147;47.520;18.920;2022-09-28T02:19:23;97151.97;;;11.80;75.74
42519;BME280;28147;47.520;18.920;2022-09-28T02:21:55;97152.25;;;11.68;75.15
42519;BME280;28147;47.520;18.920;2022-09-28T02:27:18;97147.22;;;11.67;73.85
42519;BME280;28147;47.520;18.920;2022-09-28T02:29:47;97154.13;;;11.68;74.48
42519;BME280;28147;47.520;18.920;2022-09-28T02:32:13;97142.66;;;11.73;73.96
42519;BME280;28147;47.520;18.920;2022-09-28T02:34:39;97144.56;;;11.67;73.41
42519;BME280;28147;47.520;18.920;2022-09-28T02:37:04;97149.31;;;11.70;73.26
42519;BME280;28147;47.520;18.920;2022-09-28T02:39:29;97152.25;;;11.74;72.15
42519;BME280;28147;47.520;18.920;2022-09-28T02:44:42;97149.88;;;11.67;73.50
42519;BME280;28147;47.520;18.920;2022-09-28T02:47:35;97149.03;;;11.87;73.14
42519;BME280;28147;47.520;18.920;2022-09-28T03:06:36;97162.94;;;11.58;76.12
42519;BME280;28147;47.520;18.920;2022-09-28T03:09:39;97153.41;;;11.37;75.48
42519;BME280;28147;47.520;18.920;2022-09-28T03:12:08;97163.19;;;11.62;75.76
42519;BME280;28147;47.520;18.920;2022-09-28T03:14:36;97170.38;;;11.72;75.31
42519;BME280;28147;47.520;18.920;2022-09-28T03:17:01;97162.16;;;11.58;72.49
42519;BME280;28147;47.520;18.920;2022-09-28T03:19:31;97177.28;;;11.83;73.00
42519;BME280;28147;47.520;18.920;2022-09-28T03:21:56;97184.81;;;11.60;73.51
42519;BME280;28147;47.520;18.920;2022-09-28T03:24:23;97180.56;;;11.49;73.78
42519;BME280;28147;47.520;18.920;2022-09-28T03:26:48;97182.97;;;11.56;73.57
42519;BME280;28147;47.520;18.920;2022-09-28T03:29:14;97181.59;;;11.58;73.18
42519;BME280;28147;47.520;18.920;2022-09-28T03:31:39;97186.91;;;11.74;73.70
42519;BME280;28147;47.520;18.920;2022-09-28T03:34:05;97186.13;;;11.58;74.01
42519;BME280;28147;47.520;18.920;2022-09-28T03:36:30;97198.41;;;11.49;74.09
42519;BME280;28147;47.520;18.920;2022-09-28T03:38:55;97196.28;;;11.51;75.96
42519;BME280;28147;47.520;18.920;2022-09-28T03:41:23;97197.38;;;11.34;76.28
42519;BME280;28147;47.520;18.920;2022-09-28T03:43:48;97190.97;;;11.15;76.84
42519;BME280;28147;47.520;18.920;2022-09-28T03:46:14;97196.06;;;11.06;78.23
42519;BME280;28147;47.520;18.920;2022-09-28T03:48:39;97187.25;;;11.26;76.62
42519;BME280;28147;47.520;18.920;2022-09-28T03:51:06;97181.41;;;11.04;74.96
42519;BME280;28147;47.520;18.920;2022-09-28T03:53:34;97192.31;;;11.23;76.14
42519;BME280;28147;47.520;18.920;2022-09-28T03:56:11;97176.34;;;11.17;77.17
42519;BME280;28147;47.520;18.920;2022-09-28T03:58:37;97180.88;;;11.22;74.78
42519;BME280;28147;47.520;18.920;2022-09-28T04:01:11;97186.72;;;11.19;75.13
42519;BME280;28147;47.520;18.920;2022-09-28T04:03:37;97189.66;;;11.33;74.38
42519;BME280;28147;47.520;18.920;2022-09-28T04:06:02;97187.50;;;11.35;74.90
42519;BME280;28147;47.520;18.920;2022-09-28T04:08:28;97183.00;;;11.25;73.96
42519;BME280;28147;47.520;18.920;2022-09-28T04:10:57;97188.84;;;11.37;74.19
42519;BME280;28147;47.520;18.920;2022-09-28T04:13:24;97192.03;;;11.34;74.76
42519;BME280;28147;47.520;18.920;2022-09-28T04:15:54;97186.72;;;11.34;74.13
42519;BME280;28147;47.520;18.920;2022-09-28T04:18:20;97195.47;;;11.40;73.63
42519;BME280;28147;47.520;18.920;2022-09-28T04:20:45;97193.38;;;11.37;74.79
42519;BME280;28147;47.520;18.920;2022-09-28T04:23:13;97177.91;;;11.24;74.67
42519;BME280;28147;47.520;18.920;2022-09-28T04:25:39;97175.00;;;11.30;75.10
42519;BME280;28147;47.520;18.920;2022-09-28T04:28:04;97169.66;;;11.20;74.57
42519;BME280;28147;47.520;18.920;2022-09-28T04:30:49;97186.44;;;11.31;73.92
42519;BME280;28147;47.520;18.920;2022-09-28T04:33:14;97180.84;;;11.27;73.44
42519;BME280;28147;47.520;18.920;2022-09-28T04:35:40;97176.06;;;11.29;73.62
42519;BME280;28147;47.520;18.920;2022-09-28T04:38:05;97179.25;;;11.26;73.19
42519;BME280;28147;47.520;18.920;2022-09-28T04:40:30;97178.16;;;11.32;72.99
42519;BME280;28147;47.520;18.920;2022-09-28T04:42:56;97185.38;;;11.37;73.31
42519;BME280;28147;47.520;18.920;2022-09-28T04:45:22;97188.31;;;11.40;74.45
42519;BME280;28147;47.520;18.920;2022-09-28T04:47:50;97190.97;;;11.40;72.66
42519;BME280;28147;47.520;18.920;2022-09-28T04:50:15;97197.38;;;11.24;73.30
42519;BME280;28147;47.520;18.920;2022-09-28T04:52:41;97186.47;;;11.26;73.53
42519;BME280;28147;47.520;18.920;2022-09-28T04:55:10;97192.56;;;11.31;73.79
42519;BME280;28147;47.520;18.920;2022-09-28T04:57:36;97194.97;;;11.38;73.46
42519;BME280;28147;47.520;18.920;2022-09-28T05:00:02;97200.00;;;11.50;73.78
42519;BME280;28147;47.520;18.920;2022-09-28T05:02:28;97192.03;;;11.39;74.00
42519;BME280;28147;47.520;18.920;2022-09-28T05:04:53;97189.34;;;11.39;74.81
42519;BME280;28147;47.520;18.920;2022-09-28T05:07:20;97181.34;;;11.50;73.76
42519;BME280;28147;47.520;18.920;2022-09-28T05:09:46;97180.81;;;11.48;73.64
42519;BME280;28147;47.520;18.920;2022-09-28T05:12:11;97174.19;;;11.19;73.89
42519;BME280;28147;47.520;18.920;2022-09-28T05:14:37;97175.53;;;11.07;73.39
42519;BME280;28147;47.520;18.920;2022-09-28T05:17:02;97174.97;;;11.10;73.20
42519;BME280;28147;47.520;18.920;2022-09-28T05:19:28;97184.06;;;11.14;72.52
42519;BME280;28147;47.520;18.920;2022-09-28T05:21:54;97194.69;;;11.34;72.06
42519;BME280;28147;47.520;18.920;2022-09-28T05:24:22;97189.88;;;11.47;72.06
42519;BME280;28147;47.520;18.920;2022-09-28T05:26:48;97189.88;;;11.67;72.27
42519;BME280;28147;47.520;18.920;2022-09-28T05:29:13;97192.25;;;11.58;72.25
42519;BME280;28147;47.520;18.920;2022-09-28T05:31:39;97198.44;;;11.38;71.66
42519;BME280;28147;47.520;18.920;2022-09-28T05:34:04;97200.56;;;11.21;72.41
42519;BME280;28147;47.520;18.920;2022-09-28T05:36:29;97211.13;;;10.55;74.93
42519;BME280;28147;47.520;18.920;2022-09-28T05:38:56;97199.44;;;10.61;76.51
42519;BME280;28147;47.520;18.920;2022-09-28T05:41:22;97203.78;;;11.03;75.15
42519;BME280;28147;47.520;18.920;2022-09-28T05:43:47;97201.91;;;11.24;74.34
42519;BME280;28147;47.520;18.920;2022-09-28T05:46:15;97205.09;;;11.26;74.87
42519;BME280;28147;47.520;18.920;2022-09-28T05:48:41;97211.22;;;11.41;72.92
42519;BME280;28147;47.520;18.920;2022-09-28T05:51:06;97204.00;;;11.57;72.07
42519;BME280;28147;47.520;18.920;2022-09-28T05:53:34;97210.38;;;11.51;73.23
42519;BME280;28147;47.520;18.920;2022-09-28T05:55:59;97210.91;;;11.58;71.42
42519;BME280;28147;47.520;18.920;2022-09-28T05:58:26;97217.03;;;11.79;69.93
42519;BME280;28147;47.520;18.920;2022-09-28T06:00:55;97217.00;;;12.05;71.25
42519;BME280;28147;47.520;18.920;2022-09-28T06:03:20;97202.66;;;11.55;71.97
42519;BME280;28147;47.520;18.920;2022-09-28T06:05:46;97203.66;;;12.05;71.28
42519;BME280;28147;47.520;18.920;2022-09-28T06:08:12;97211.13;;;11.92;70.13
42519;BME280;28147;47.520;18.920;2022-09-28T06:10:37;97212.00;;;11.67;69.72
42519;BME280;28147;47.520;18.920;2022-09-28T06:13:03;97213.25;;;12.01;69.95
42519;BME280;28147;47.520;18.920;2022-09-28T06:15:30;97214.03;;;12.16;68.23
42519;BME280;28147;47.520;18.920;2022-09-28T06:18:14;97201.66;;;12.36;67.66
42519;BME280;28147;47.520;18.920;2022-09-28T06:20:40;97210.25;;;12.72;67.60
42519;BME280;28147;47.520;18.920;2022-09-28T06:23:06;97202.97;;;13.22;68.76
42519;BME280;28147;47.520;18.920;2022-09-28T06:25:32;97203.25;;;13.55;70.47
42519;BME280;28147;47.520;18.920;2022-09-28T06:28:03;97195.47;;;13.58;72.34
42519;BME280;28147;47.520;18.920;2022-09-28T06:30:32;97208.34;;;13.80;69.22
42519;BME280;28147;47.520;18.920;2022-09-28T06:32:59;97213.38;;;13.87;68.51
42519;BME280;28147;47.520;18.920;2022-09-28T06:35:27;97211.81;;;13.52;67.98
42519;BME280;28147;47.520;18.920;2022-09-28T06:37:55;97217.41;;;13.84;65.84
42519;BME280;28147;47.520;18.920;2022-09-28T06:40:21;97216.09;;;13.19;66.24
42519;BME280;28147;47.520;18.920;2022-09-28T06:43:05;97216.88;;;13.82;66.75
42519;BME280;28147;47.520;18.920;2022-09-28T06:45:34;97223.06;;;14.07;67.25
42519;BME280;28147;47.520;18.920;2022-09-28T06:48:00;97216.84;;;14.11;69.26
42519;BME280;28147;47.520;18.920;2022-09-28T06:50:28;97221.50;;;14.01;66.62
42519;BME280;28147;47.520;18.920;2022-09-28T06:52:55;97223.72;;;13.94;65.94
42519;BME280;28147;47.520;18.920;2022-09-28T06:55:21;97224.38;;;14.09;66.78
42519;BME280;28147;47.520;18.920;2022-09-28T06:57:48;97233.06;;;13.96;67.26
42519;BME280;28147;47.520;18.920;2022-09-28T07:00:21;97224.72;;;13.74;67.31
42519;BME280;28147;47.520;18.920;2022-09-28T07:02:46;97230.31;;;13.77;66.86
42519;BME280;28147;47.520;18.920;2022-09-28T07:05:11;97223.69;;;13.70;66.63
42519;BME280;28147;47.520;18.920;2022-09-28T07:07:38;97220.78;;;13.95;66.39
42519;BME280;28147;47.520;18.920;2022-09-28T07:10:05;97240.44;;;14.09;66.32
42519;BME280;28147;47.520;18.920;2022-09-28T07:12:30;97226.47;;;14.36;67.05
42519;BME280;28147;47.520;18.920;2022-09-28T07:14:56;97236.25;;;14.22;64.39
42519;BME280;28147;47.520;18.920;2022-09-28T07:17:23;97221.88;;;14.61;66.70
42519;BME280;28147;47.520;18.920;2022-09-28T07:19:48;97220.72;;;14.43;64.90
42519;BME280;28147;47.520;18.920;2022-09-28T07:22:18;97226.44;;;14.60;65.51
42519;BME280;28147;47.520;18.920;2022-09-28T07:24:43;97222.09;;;14.65;64.94
42519;BME280;28147;47.520;18.920;2022-09-28T07:27:09;97221.91;;;14.80;65.14
42519;BME280;28147;47.520;18.920;2022-09-28T07:29:34;97216.06;;;15.29;67.28
42519;BME280;28147;47.520;18.920;2022-09-28T07:32:00;97217.75;;;15.58;66.84
42519;BME280;28147;47.520;18.920;2022-09-28T07:34:25;97204.56;;;15.75;66.25
42519;BME280;28147;47.520;18.920;2022-09-28T07:36:50;97201.03;;;15.80;65.84
42519;BME280;28147;47.520;18.920;2022-09-28T07:39:24;97212.06;;;15.60;66.04
42519;BME280;28147;47.520;18.920;2022-09-28T07:41:49;97209.88;;;15.80;64.45
42519;BME280;28147;47.520;18.920;2022-09-28T07:44:14;97216.66;;;16.33;65.13
42519;BME280;28147;47.520;18.920;2022-09-28T07:46:41;97218.50;;;16.33;64.10
42519;BME280;28147;47.520;18.920;2022-09-28T07:49:07;97214.97;;;15.63;64.12
42519;BME280;28147;47.520;18.920;2022-09-28T07:51:33;97225.88;;;16.13;65.47
42519;BME280;28147;47.520;18.920;2022-09-28T07:53:59;97221.13;;;15.64;65.81
42519;BME280;28147;47.520;18.920;2022-09-28T07:56:24;97223.41;;;15.24;68.48
42519;BME280;28147;47.520;18.920;2022-09-28T07:58:50;97227.19;;;15.37;68.25
42519;BME280;28147;47.520;18.920;2022-09-28T08:01:16;97226.34;;;15.74;67.76
42519;BME280;28147;47.520;18.920;2022-09-28T08:03:43;97238.22;;;16.42;65.86
42519;BME280;28147;47.520;18.920;2022-09-28T08:06:10;97235.63;;;17.00;63.50
42519;BME280;28147;47.520;18.920;2022-09-28T08:08:37;97227.94;;;16.58;64.27
42519;BME280;28147;47.520;18.920;2022-09-28T08:11:10;97232.03;;;16.55;64.03
42519;BME280;28147;47.520;18.920;2022-09-28T08:13:36;97234.69;;;15.86;63.99
42519;BME280;28147;47.520;18.920;2022-09-28T08:16:02;97227.56;;;16.23;63.68
42519;BME280;28147;47.520;18.920;2022-09-28T08:18:28;97217.22;;;16.44;62.69
42519;BME280;28147;47.520;18.920;2022-09-28T08:20:54;97219.31;;;16.97;60.98
42519;BME280;28147;47.520;18.920;2022-09-28T08:23:38;97209.22;;;16.66;60.55
42519;BME280;28147;47.520;18.920;2022-09-28T08:26:04;97210.38;;;15.96;62.91
42519;BME280;28147;47.520;18.920;2022-09-28T08:28:30;97183.91;;;16.31;63.33
42519;BME280;28147;47.520;18.920;2022-09-28T08:30:58;97184.81;;;16.40;61.71
42519;BME280;28147;47.520;18.920;2022-09-28T08:33:23;97182.75;;;16.73;60.34
42519;BME280;28147;47.520;18.920;2022-09-28T08:35:59;97198.28;;;16.63;62.18
42519;BME280;28147;47.520;18.920;2022-09-28T08:38:26;97194.97;;;16.93;60.76
42519;BME280;28147;47.520;18.920;2022-09-28T08:41:07;97201.03;;;16.85;61.59
42519;BME280;28147;47.520;18.920;2022-09-28T08:46:23;97218.22;;;16.98;60.64
42519;BME280;28147;47.520;18.920;2022-09-28T08:48:55;97221.47;;;16.86;61.00
42519;BME280;28147;47.520;18.920;2022-09-28T08:51:27;97226.94;;;17.40;60.90
42519;BME280;28147;47.520;18.920;2022-09-28T08:56:51;97222.44;;;16.63;61.50
42519;BME280;28147;47.520;18.920;2022-09-28T08:59:40;97215.16;;;16.91;60.98
42519;BME280;28147;47.520;18.920;2022-09-28T09:02:15;97217.59;;;16.51;62.88
42519;BME280;28147;47.520;18.920;2022-09-28T09:04:42;97219.72;;;16.26;62.45
42519;BME280;28147;47.520;18.920;2022-09-28T09:07:46;97212.16;;;16.92;61.92
42519;BME280;28147;47.520;18.920;2022-09-28T09:16:17;97198.88;;;17.32;60.02
42519;BME280;28147;47.520;18.920;2022-09-28T09:24:37;97212.00;;;17.34;59.07
42519;BME280;28147;47.520;18.920;2022-09-28T09:27:47;97208.44;;;16.80;60.61
42519;BME280;28147;47.520;18.920;2022-09-28T09:30:16;97199.44;;;16.70;63.62
42519;BME280;28147;47.520;18.920;2022-09-28T09:32:50;97194.72;;;17.57;60.09
42519;BME280;28147;47.520;18.920;2022-09-28T09:35:36;97195.25;;;18.47;58.34
42519;BME280;28147;47.520;18.920;2022-09-28T09:44:13;97188.38;;;17.75;54.64
42519;BME280;28147;47.520;18.920;2022-09-28T09:46:50;97199.50;;;18.31;55.74
42519;BME280;28147;47.520;18.920;2022-09-28T09:49:26;97206.13;;;17.54;56.28
42519;BME280;28147;47.520;18.920;2022-09-28T09:51:58;97203.53;;;17.71;56.63
42519;BME280;28147;47.520;18.920;2022-09-28T09:57:16;97211.72;;;17.13;60.81
42519;BME280;28147;47.520;18.920;2022-09-28T09:59:43;97203.34;;;16.78;63.25
42519;BME280;28147;47.520;18.920;2022-09-28T10:02:25;97204.47;;;16.36;63.07
42519;BME280;28147;47.520;18.920;2022-09-28T10:05:05;97205.47;;;15.71;65.64
42519;BME280;28147;47.520;18.920;2022-09-28T10:07:51;97212.16;;;16.15;65.68
42519;BME280;28147;47.520;18.920;2022-09-28T10:10:27;97199.25;;;17.17;61.53
42519;BME280;28147;47.520;18.920;2022-09-28T10:12:53;97209.09;;;16.85;61.27
42519;BME280;28147;47.520;18.920;2022-09-28T10:15:23;97211.63;;;16.68;62.54
42519;BME280;28147;47.520;18.920;2022-09-28T10:17:49;97204.06;;;17.29;60.47
42519;BME280;28147;47.520;18.920;2022-09-28T10:20:14;97203.56;;;17.49;59.41
42519;BME280;28147;47.520;18.920;2022-09-28T10:22:40;97212.16;;;16.92;60.55
42519;BME280;28147;47.520;18.920;2022-09-28T10:25:06;97201.34;;;16.84;60.57
42519;BME280;28147;47.520;18.920;2022-09-28T10:27:35;97210.19;;;17.20;61.41
42519;BME280;28147;47.520;18.920;2022-09-28T10:32:40;97209.88;;;16.86;61.75
42519;BME280;28147;47.520;18.920;2022-09-28T10:40:50;97206.53;;;16.80;61.59
42519;BME280;28147;47.520;18.920;2022-09-28T10:46:05;97210.91;;;16.90;61.64
42519;BME280;28147;47.520;18.920;2022-09-28T10:51:09;97206.13;;;16.73;59.94
42519;BME280;28147;47.520;18.920;2022-09-28T10:53:35;97197.47;;;16.62;60.97
42519;BME280;28147;47.520;18.920;2022-09-28T10:56:04;97206.13;;;16.87;61.35
42519;BME280;28147;47.520;18.920;2022-09-28T10:58:39;97193.22;;;16.61;61.95
42519;BME280;28147;47.520;18.920;2022-09-28T11:03:59;97193.22;;;16.61;61.72
42519;BME280;28147;47.520;18.920;2022-09-28T11:06:44;97184.88;;;16.49;62.74
42519;BME280;28147;47.520;18.920;2022-09-28T11:09:31;97181.03;;;16.27;65.16
42519;BME280;28147;47.520;18.920;2022-09-28T11:11:58;97184.69;;;16.32;63.85
42519;BME280;28147;47.520;18.920;2022-09-28T11:17:24;97174.56;;;17.46;60.20
42519;BME280;28147;47.520;18.920;2022-09-28T11:19:50;97169.88;;;17.29;59.19
42519;BME280;28147;47.520;18.920;2022-09-28T11:24:48;97159.63;;;16.86;58.96
42519;BME280;28147;47.520;18.920;2022-09-28T11:27:24;97167.00;;;16.44;61.16
42519;BME280;28147;47.520;18.920;2022-09-28T11:29:59;97165.69;;;16.28;61.49
42519;BME280;28147;47.520;18.920;2022-09-28T11:32:42;97171.97;;;16.87;58.87
42519;BME280;28147;47.520;18.920;2022-09-28T11:35:19;97171.63;;;17.56;56.13
42519;BME280;28147;47.520;18.920;2022-09-28T11:41:15;97161.13;;;18.26;56.59
42519;BME280;28147;47.520;18.920;2022-09-28T11:51:44;97161.16;;;16.78;58.53
42519;BME280;28147;47.520;18.920;2022-09-28T11:54:22;97156.63;;;17.10;58.56
42519;BME280;28147;47.520;18.920;2022-09-28T11:56:50;97144.56;;;17.30;57.61
42519;BME280;28147;47.520;18.920;2022-09-28T11:59:33;97148.41;;;18.00;56.42
42519;BME280;28147;47.520;18.920;2022-09-28T12:05:21;97130.34;;;16.85;60.04
42519;BME280;28147;47.520;18.920;2022-09-28T12:07:54;97136.09;;;17.14;59.49
42519;BME280;28147;47.520;18.920;2022-09-28T12:10:37;97131.72;;;16.60;57.59
42519;BME280;28147;47.520;18.920;2022-09-28T12:15:59;97122.00;;;17.09;57.24
42519;BME280;28147;47.520;18.920;2022-09-28T12:20:58;97115.84;;;17.39;57.75
42519;BME280;28147;47.520;18.920;2022-09-28T12:23:32;97122.03;;;17.17;56.40
42519;BME280;28147;47.520;18.920;2022-09-28T12:26:03;97118.16;;;17.63;54.30
42519;BME280;28147;47.520;18.920;2022-09-28T12:28:40;97109.66;;;17.39;55.26
42519;BME280;28147;47.520;18.920;2022-09-28T12:31:22;97105.44;;;16.93;55.86
42519;BME280;28147;47.520;18.920;2022-09-28T12:33:50;97094.09;;;17.67;58.25
42519;BME280;28147;47.520;18.920;2022-09-28T12:37:03;97098.38;;;17.28;55.54
42519;BME280;28147;47.520;18.920;2022-09-28T12:50:21;97105.09;;;15.72;62.62
42519;BME280;28147;47.520;18.920;2022-09-28T12:55:18;97103.22;;;15.72;63.13
42519;BME280;28147;47.520;18.920;2022-09-28T12:57:52;97111.16;;;15.77;63.79
42519;BME280;28147;47.520;18.920;2022-09-28T13:00:22;97102.28;;;15.63;63.15
42519;BME280;28147;47.520;18.920;2022-09-28T13:06:06;97104.69;;;15.78;62.88
42519;BME280;28147;47.520;18.920;2022-09-28T13:17:07;97095.28;;;15.81;64.85
42519;BME280;28147;47.520;18.920;2022-09-28T13:24:32;97108.75;;;15.62;65.04
42519;BME280;28147;47.520;18.920;2022-09-28T13:27:06;97104.81;;;15.73;64.70
42519;BME280;28147;47.520;18.920;2022-09-28T13:29:34;97094.88;;;15.88;63.98
42519;BME280;28147;47.520;18.920;2022-09-28T13:32:01;97110.53;;;15.94;62.52
42519;BME280;28147;47.520;18.920;2022-09-28T13:34:29;97105.88;;;16.00;63.58
42519;BME280;28147;47.520;18.920;2022-09-28T13:37:18;97105.69;;;15.82;63.04
42519;BME280;28147;47.520;18.920;2022-09-28T13:42:20;97091.47;;;15.96;64.86
42519;BME280;28147;47.520;18.920;2022-09-28T13:45:07;97091.19;;;15.84;64.27
42519;BME280;28147;47.520;18.920;2022-09-28T13:52:48;97084.81;;;15.79;63.92
42519;BME280;28147;47.520;18.920;2022-09-28T13:58:00;97090.97;;;16.08;61.93
42519;BME280;28147;47.520;18.920;2022-09-28T14:08:33;97098.63;;;16.14;59.16
42519;BME280;28147;47.520;18.920;2022-09-28T14:16:36;97099.63;;;15.91;59.63
42519;BME280;28147;47.520;18.920;2022-09-28T14:21:58;97098.94;;;15.85;59.85
42519;BME280;28147;47.520;18.920;2022-09-28T14:24:34;97101.34;;;15.73;60.36
42519;BME280;28147;47.520;18.920;2022-09-28T14:29:38;97088.50;;;15.84;60.94
42519;BME280;28147;47.520;18.920;2022-09-28T14:34:47;97089.41;;;15.65;61.11
42519;BME280;28147;47.520;18.920;2022-09-28T14:37:30;97082.22;;;15.47;61.66
42519;BME280;28147;47.520;18.920;2022-09-28T14:40:17;97095.72;;;15.55;62.36
42519;BME280;28147;47.520;18.920;2022-09-28T14:48:58;97094.63;;;15.56;63.41
42519;BME280;28147;47.520;18.920;2022-09-28T14:54:03;97087.09;;;15.58;62.39
42519;BME280;28147;47.520;18.920;2022-09-28T14:56:38;97083.59;;;15.44;63.31
42519;BME280;28147;47.520;18.920;2022-09-28T14:59:05;97082.22;;;15.47;63.55
42519;BME280;28147;47.520;18.920;2022-09-28T15:01:32;97076.56;;;15.48;63.31
42519;BME280;28147;47.520;18.920;2022-09-28T15:04:05;97068.03;;;15.46;63.50
42519;BME280;28147;47.520;18.920;2022-09-28T15:06:45;97073.69;;;15.31;63.55
42519;BME280;28147;47.520;18.920;2022-09-28T15:09:34;97075.47;;;15.49;64.16
42519;BME280;28147;47.520;18.920;2022-09-28T15:12:04;97076.44;;;15.26;62.97
42519;BME280;28147;47.520;18.920;2022-09-28T15:14:34;97073.88;;;15.48;62.89
42519;BME280;28147;47.520;18.920;2022-09-28T15:17:07;97064.75;;;15.49;62.97
42519;BME280;28147;47.520;18.920;2022-09-28T15:20:15;97067.22;;;15.46;62.99
42519;BME280;28147;47.520;18.920;2022-09-28T15:22:46;97060.56;;;15.43;63.30
42519;BME280;28147;47.520;18.920;2022-09-28T15:25:20;97052.41;;;15.48;63.33
42519;BME280;28147;47.520;18.920;2022-09-28T15:27:52;97065.31;;;15.60;62.94
42519;BME280;28147;47.520;18.920;2022-09-28T15:30:31;97056.09;;;15.39;63.61
42519;BME280;28147;47.520;18.920;2022-09-28T15:32:59;97051.63;;;15.62;62.52
42519;BME280;28147;47.520;18.920;2022-09-28T15:36:00;97056.28;;;15.56;63.17
42519;BME280;28147;47.520;18.920;2022-09-28T15:38:27;97058.69;;;15.57;62.93
42519;BME280;28147;47.520;18.920;2022-09-28T15:40:54;97055.59;;;15.50;63.51
42519;BME280;28147;47.520;18.920;2022-09-28T15:43:30;97060.38;;;15.53;64.05
42519;BME280;28147;47.520;18.920;2022-09-28T15:46:27;97074.00;;;15.57;63.18
42519;BME280;28147;47.520;18.920;2022-09-28T15:48:56;97073.78;;;15.53;64.07
42519;BME280;28147;47.520;18.920;2022-09-28T15:51:24;97062.16;;;15.58;64.12
42519;BME280;28147;47.520;18.920;2022-09-28T15:54:09;97054.69;;;15.55;63.90
42519;BME280;28147;47.520;18.920;2022-09-28T15:56:58;97063.63;;;15.64;63.76
42519;BME280;28147;47.520;18.920;2022-09-28T15:59:34;97055.69;;;15.59;63.78
42519;BME280;28147;47.520;18.920;2022-09-28T16:02:18;97060.56;;;15.57;63.06
42519;BME280;28147;47.520;18.920;2022-09-28T16:04:47;97062.28;;;15.67;64.87
42519;BME280;28147;47.520;18.920;2022-09-28T16:15:29;97058.88;;;15.20;63.71